sensor_id;sensor_type;location;lat;lon;timestamp;pressure;altitude;pressure_sealevel;temperature;humidity
9460;BME280;4768;42.664;23.240;2023-03-29T00:02:10;-9368.31;;;-1.46;100.00
9460;BME280;4768;42.664;23.240;2023-03-29T00:04:37;-9368.19;;;-1.46;100.00
9460;BME280;4768;42.664;23.240;2023-03-29T00:07:05;-9366.50;;;-1.52;100.00
9460;BME280;4768;42.664;23.240;2023-03-29T00:09:32;-9364.53;;;-1.59;100.00
9460;BME280;4768;42.664;23.240;2023-03-29T00:12:00;-9366.50;;;-1.52;100.00
9460;BME280;4768;42.664;23.240;2023-03-29T00:14:27;-9367.19;;;-1.50;100.00
9460;BME280;4768;42.664;23.240;2023-03-29T00:16:55;-9363.69;;;-1.62;100.00
9460;BME280;4768;42.664;23.240;2023-03-29T00:19:22;-9361.72;;;-1.69;100.00
9460;BME280;4768;42.664;23.240;2023-03-29T00:21:49;-9360.16;;;-1.75;100.00
9460;BME280;4768;42.664;23.240;2023-03-29T00:24:15;-9361.00;;;-1.72;100.00
9460;BME280;4768;42.664;23.240;2023-03-29T00:26:42;-9361.44;;;-1.70;100.00
9460;BME280;4768;42.664;23.240;2023-03-29T00:29:11;-9363.41;;;-1.63;100.00
9460;BME280;4768;42.664;23.240;2023-03-29T00:31:37;-9361.72;;;-1.69;100.00
9460;BME280;4768;42.664;23.240;2023-03-29T00:34:04;-9361.72;;;-1.69;100.00
9460;BME280;4768;42.664;23.240;2023-03-29T00:36:31;-9361.56;;;-1.70;100.00
9460;BME280;4768;42.664;23.240;2023-03-29T00:38:58;-9360.44;;;-1.74;100.00
9460;BME280;4768;42.664;23.240;2023-03-29T00:41:24;-9361.84;;;-1.69;100.00
9460;BME280;4768;42.664;23.240;2023-03-29T00:43:54;-9361.00;;;-1.72;100.00
9460;BME280;4768;42.664;23.240;2023-03-29T00:46:23;-9362.97;;;-1.65;100.00
9460;BME280;4768;42.664;23.240;2023-03-29T00:48:52;-9362.97;;;-1.65;100.00
9460;BME280;4768;42.664;23.240;2023-03-29T00:51:23;-9364.53;;;-1.59;100.00
9460;BME280;4768;42.664;23.240;2023-03-29T00:53:55;-9363.69;;;-1.62;100.00
9460;BME280;4768;42.664;23.240;2023-03-29T00:56:26;-9362.56;;;-1.66;100.00
9460;BME280;4768;42.664;23.240;2023-03-29T00:58:58;-9362.41;;;-1.67;100.00
9460;BME280;4768;42.664;23.240;2023-03-29T01:01:31;-9362.13;;;-1.68;100.00
9460;BME280;4768;42.664;23.240;2023-03-29T01:04:05;-9361.28;;;-1.71;100.00
9460;BME280;4768;42.664;23.240;2023-03-29T01:06:35;-9359.03;;;-1.79;100.00
9460;BME280;4768;42.664;23.240;2023-03-29T01:09:06;-9359.75;;;-1.76;100.00
9460;BME280;4768;42.664;23.240;2023-03-29T01:11:38;-9360.03;;;-1.75;100.00
9460;BME280;4768;42.664;23.240;2023-03-29T01:14:07;-9361.28;;;-1.71;100.00
9460;BME280;4768;42.664;23.240;2023-03-29T01:16:38;-9362.00;;;-1.68;100.00
9460;BME280;4768;42.664;23.240;2023-03-29T01:19:08;-9361.72;;;-1.69;100.00
9460;BME280;4768;42.664;23.240;2023-03-29T01:21:40;-9362.13;;;-1.68;100.00
9460;BME280;4768;42.664;23.240;2023-03-29T01:24:38;-9361.56;;;-1.70;100.00
9460;BME280;4768;42.664;23.240;2023-03-29T01:27:14;-9361.16;;;-1.71;100.00
9460;BME280;4768;42.664;23.240;2023-03-29T01:29:44;-9358.47;;;-1.81;100.00
9460;BME280;4768;42.664;23.240;2023-03-29T01:32:17;-9361.00;;;-1.72;100.00
9460;BME280;4768;42.664;23.240;2023-03-29T01:34:50;-9361.16;;;-1.71;100.00
9460;BME280;4768;42.664;23.240;2023-03-29T01:37:22;-9361.56;;;-1.70;100.00
9460;BME280;4768;42.664;23.240;2023-03-29T01:39:51;-9361.72;;;-1.69;100.00
9460;BME280;4768;42.664;23.240;2023-03-29T01:42:38;-9361.16;;;-1.71;100.00
9460;BME280;4768;42.664;23.240;2023-03-29T01:45:15;-9359.88;;;-1.76;100.00
9460;BME280;4768;42.664;23.240;2023-03-29T01:47:52;-9361.44;;;-1.70;100.00
9460;BME280;4768;42.664;23.240;2023-03-29T01:50:29;-9360.59;;;-1.73;100.00
9460;BME280;4768;42.664;23.240;2023-03-29T01:53:03;-9359.47;;;-1.77;100.00
9460;BME280;4768;42.664;23.240;2023-03-29T01:55:34;-9358.06;;;-1.82;100.00
9460;BME280;4768;42.664;23.240;2023-03-29T01:58:04;-9359.03;;;-1.79;100.00
9460;BME280;4768;42.664;23.240;2023-03-29T02:00:34;-9359.47;;;-1.77;100.00
9460;BME280;4768;42.664;23.240;2023-03-29T02:03:05;-9361.44;;;-1.70;100.00
9460;BME280;4768;42.664;23.240;2023-03-29T02:05:34;-9360.03;;;-1.75;100.00
9460;BME280;4768;42.664;23.240;2023-03-29T02:08:03;-9360.72;;;-1.73;100.00
9460;BME280;4768;42.664;23.240;2023-03-29T02:10:32;-9360.31;;;-1.74;100.00
9460;BME280;4768;42.664;23.240;2023-03-29T02:12:59;-9355.66;;;-1.84;100.00
9460;BME280;4768;42.664;23.240;2023-03-29T02:15:26;-8687.78;;;-1.79;100.00
9460;BME280;4768;42.664;23.240;2023-03-29T02:17:54;-9020.44;;;-1.86;100.00
9460;BME280;4768;42.664;23.240;2023-03-29T02:20:25;-9013.69;;;-2.10;100.00
9460;BME280;4768;42.664;23.240;2023-03-29T02:22:57;-8348.91;;;-1.95;100.00
9460;BME280;4768;42.664;23.240;2023-03-29T02:25:27;-6678.75;;;-1.82;100.00
9460;BME280;4768;42.664;23.240;2023-03-29T02:27:55;-6010.88;;;-1.74;100.00
9460;BME280;4768;42.664;23.240;2023-03-29T02:30:24;-5004.69;;;-1.80;100.00
9460;BME280;4768;42.664;23.240;2023-03-29T02:32:57;-3999.09;;;-1.83;100.00
9460;BME280;4768;42.664;23.240;2023-03-29T02:35:30;-3329.59;;;-1.79;100.00
9460;BME280;4768;42.664;23.240;2023-03-29T02:38:02;-4000.25;;;-1.77;100.00
9460;BME280;4768;42.664;23.240;2023-03-29T02:40:29;-3664.28;;;-1.81;100.00
9460;BME280;4768;42.664;23.240;2023-03-29T02:42:58;-4668.47;;;-1.86;100.00
9460;BME280;4768;42.664;23.240;2023-03-29T02:45:27;-5672.41;;;-1.90;100.00
9460;BME280;4768;42.664;23.240;2023-03-29T02:47:59;-6006.69;;;-1.92;100.00
9460;BME280;4768;42.664;23.240;2023-03-29T02:50:32;-7010.25;;;-1.95;100.00
9460;BME280;4768;42.664;23.240;2023-03-29T02:53:04;-9349.78;;;-2.04;100.00
9460;BME280;4768;42.664;23.240;2023-03-29T02:55:33;-9355.38;;;-1.92;100.00
9460;BME280;4768;42.664;23.240;2023-03-29T02:58:00;-9356.94;;;-1.86;100.00
9460;BME280;4768;42.664;23.240;2023-03-29T03:00:32;-9356.94;;;-1.86;100.00
9460;BME280;4768;42.664;23.240;2023-03-29T03:03:00;-9356.38;;;-1.88;100.00
9460;BME280;4768;42.664;23.240;2023-03-29T03:05:27;-9356.38;;;-1.88;100.00
9460;BME280;4768;42.664;23.240;2023-03-29T03:07:55;-9356.22;;;-1.89;100.00
9460;BME280;4768;42.664;23.240;2023-03-29T03:10:23;-9356.78;;;-1.87;100.00
9460;BME280;4768;42.664;23.240;2023-03-29T03:12:50;-9355.94;;;-1.90;100.00
9460;BME280;4768;42.664;23.240;2023-03-29T03:15:16;-9357.91;;;-1.83;100.00
9460;BME280;4768;42.664;23.240;2023-03-29T03:17:44;-9358.47;;;-1.81;100.00
9460;BME280;4768;42.664;23.240;2023-03-29T03:20:12;-9359.19;;;-1.78;100.00
9460;BME280;4768;42.664;23.240;2023-03-29T03:22:40;-9358.06;;;-1.82;100.00
9460;BME280;4768;42.664;23.240;2023-03-29T03:25:07;-9357.50;;;-1.84;100.00
9460;BME280;4768;42.664;23.240;2023-03-29T03:27:36;-9356.50;;;-1.88;100.00
9460;BME280;4768;42.664;23.240;2023-03-29T03:30:03;-9356.66;;;-1.87;100.00
9460;BME280;4768;42.664;23.240;2023-03-29T03:32:30;-9356.38;;;-1.88;100.00
9460;BME280;4768;42.664;23.240;2023-03-29T03:34:58;-9357.50;;;-1.84;100.00
9460;BME280;4768;42.664;23.240;2023-03-29T03:37:26;-9353.28;;;-1.92;100.00
9460;BME280;4768;42.664;23.240;2023-03-29T03:39:54;-7011.72;;;-1.90;100.00
9460;BME280;4768;42.664;23.240;2023-03-29T03:42:20;-4668.25;;;-1.87;100.00
9460;BME280;4768;42.664;23.240;2023-03-29T03:44:48;-2322.19;;;-1.89;100.00
9460;BME280;4768;42.664;23.240;2023-03-29T03:47:15;-981.34;;;-1.87;100.00
9460;BME280;4768;42.664;23.240;2023-03-29T03:49:41;696.31;;;-1.91;100.00
9460;BME280;4768;42.664;23.240;2023-03-29T03:52:08;2038.91;;;-1.93;100.00
9460;BME280;4768;42.664;23.240;2023-03-29T03:54:36;4053.03;;;-1.88;100.00
9460;BME280;4768;42.664;23.240;2023-03-29T03:57:03;7749.69;;;-1.87;100.00
9460;BME280;4768;42.664;23.240;2023-03-29T03:59:30;10777.25;;;-1.90;100.00
9460;BME280;4768;42.664;23.240;2023-03-29T04:01:57;12797.25;;;-1.89;100.00
9460;BME280;4768;42.664;23.240;2023-03-29T04:04:24;15155.72;;;-1.86;100.00
9460;BME280;4768;42.664;23.240;2023-03-29T04:06:51;18190.59;;;-1.84;100.00
9460;BME280;4768;42.664;23.240;2023-03-29T04:09:18;21227.34;;;-1.87;100.00
9460;BME280;4768;42.664;23.240;2023-03-29T04:11:48;22915.94;;;-1.87;100.00
9460;BME280;4768;42.664;23.240;2023-03-29T04:14:17;25277.25;;;-2.01;100.00
9460;BME280;4768;42.664;23.240;2023-03-29T04:16:44;27645.91;;;-1.95;100.00
9460;BME280;4768;42.664;23.240;2023-03-29T04:19:12;28998.44;;;-1.97;100.00
9460;BME280;4768;42.664;23.240;2023-03-29T04:21:39;29675.75;;;-1.95;100.00
9460;BME280;4768;42.664;23.240;2023-03-29T04:24:07;29336.13;;;-1.99;100.00
9460;BME280;4768;42.664;23.240;2023-03-29T04:26:34;28662.13;;;-1.91;100.00
9460;BME280;4768;42.664;23.240;2023-03-29T04:29:02;29681.09;;;-1.81;100.00
9460;BME280;4768;42.664;23.240;2023-03-29T04:31:29;31041.69;;;-1.64;100.00
9460;BME280;4768;42.664;23.240;2023-03-29T04:33:57;33419.41;;;-1.51;100.00
9460;BME280;4768;42.664;23.240;2023-03-29T04:36:24;34096.75;;;-1.53;100.00
9460;BME280;4768;42.664;23.240;2023-03-29T04:38:50;33087.94;;;-1.33;100.00
9460;BME280;4768;42.664;23.240;2023-03-29T04:41:17;33099.06;;;-1.06;100.00
9460;BME280;4768;42.664;23.240;2023-03-29T04:43:44;39894.50;;;-1.00;100.00
9460;BME280;4768;42.664;23.240;2023-03-29T04:46:13;44653.75;;;-1.07;100.00
9460;BME280;4768;42.664;23.240;2023-03-29T04:48:40;46708.78;;;-0.89;100.00
9460;BME280;4768;42.664;23.240;2023-03-29T04:51:07;53201.63;;;-0.73;100.00
9460;BME280;4768;42.664;23.240;2023-03-29T04:53:34;61075.34;;;-0.61;100.00
9460;BME280;4768;42.664;23.240;2023-03-29T04:56:01;67611.41;;;-0.36;100.00
9460;BME280;4768;42.664;23.240;2023-03-29T04:58:28;77895.34;;;-0.59;100.00
9460;BME280;4768;42.664;23.240;2023-03-29T05:00:55;84080.28;;;-0.70;100.00
9460;BME280;4768;42.664;23.240;2023-03-29T05:03:24;83401.06;;;-0.62;100.00
9460;BME280;4768;42.664;23.240;2023-03-29T05:05:52;86536.16;;;-0.37;100.00
9460;BME280;4768;42.664;23.240;2023-03-29T05:08:18;97584.44;;;-0.45;100.00
9460;BME280;4768;42.664;23.240;2023-03-29T05:10:45;110411.69;;;-0.46;100.00
9460;BME280;4768;42.664;23.240;2023-03-29T05:13:14;109711.13;;;-0.49;100.00
9460;BME280;4768;42.664;23.240;2023-03-29T05:15:41;116963.16;;;-0.76;100.00
9460;BME280;4768;42.664;23.240;2023-03-29T05:18:08;110312.72;;;-1.04;100.00
9460;BME280;4768;42.664;23.240;2023-03-29T05:20:36;96837.31;;;-0.82;100.00
9460;BME280;4768;42.664;23.240;2023-03-29T05:23:04;100328.53;;;-0.61;100.00
9460;BME280;4768;42.664;23.240;2023-03-29T05:25:31;104153.34;;;-0.53;100.00
9460;BME280;4768;42.664;23.240;2023-03-29T05:27:58;104215.25;;;-0.14;100.00
9460;BME280;4768;42.664;23.240;2023-03-29T05:30:25;111498.44;;;-0.20;100.00
9460;BME280;4768;42.664;23.240;2023-03-29T05:32:52;112567.41;;;-0.05;100.00
9460;BME280;4768;42.664;23.240;2023-03-29T05:35:19;130635.00;;;-0.38;100.00
9460;BME280;4768;42.664;23.240;2023-03-29T05:37:47;126177.47;;;0.04;100.00
9460;BME280;4768;42.664;23.240;2023-03-29T05:40:15;136617.63;;;-0.20;100.00
9460;BME280;4768;42.664;23.240;2023-03-29T05:42:42;140105.19;;;-0.27;100.00
9460;BME280;4768;42.664;23.240;2023-03-29T05:45:10;144587.66;;;-0.60;100.00
9460;BME280;4768;42.664;23.240;2023-03-29T05:47:36;128167.97;;;-0.48;100.00
9460;BME280;4768;42.664;23.240;2023-03-29T05:50:04;118738.59;;;-0.57;100.00
9460;BME280;4768;42.664;23.240;2023-03-29T05:52:33;113864.47;;;-0.59;100.00
9460;BME280;4768;42.664;23.240;2023-03-29T05:55:02;122497.25;;;-0.95;100.00
9460;BME280;4768;42.664;23.240;2023-03-29T05:57:29;123593.00;;;-0.69;100.00
9460;BME280;4768;42.664;23.240;2023-03-29T05:59:56;126389.41;;;-0.65;100.00
9460;BME280;4768;42.664;23.240;2023-03-29T06:02:23;136170.78;;;-0.65;100.00
9460;BME280;4768;42.664;23.240;2023-03-29T06:04:50;134788.63;;;-0.57;100.00
9460;BME280;4768;42.664;23.240;2023-03-29T06:07:18;126431.59;;;-0.44;100.00
9460;BME280;4768;42.664;23.240;2023-03-29T06:09:45;129575.78;;;-0.43;100.00
9460;BME280;4768;42.664;23.240;2023-03-29T06:12:13;141814.44;;;-0.47;100.00
9460;BME280;4768;42.664;23.240;2023-03-29T06:14:40;140071.25;;;-0.43;100.00
9460;BME280;4768;42.664;23.240;2023-03-29T06:17:07;137300.75;;;-0.28;100.00
9460;BME280;4768;42.664;23.240;2023-03-29T06:19:34;140454.56;;;-0.28;100.00
9460;BME280;4768;42.664;23.240;2023-03-29T06:22:01;138729.78;;;-0.15;100.00
9460;BME280;4768;42.664;23.240;2023-03-29T06:24:28;138724.34;;;-0.18;100.00
9460;BME280;4768;42.664;23.240;2023-03-29T06:26:54;141481.69;;;-0.39;100.00
9460;BME280;4768;42.664;23.240;2023-03-29T06:29:22;143267.13;;;-0.24;100.00
9460;BME280;4768;42.664;23.240;2023-03-29T06:31:49;154197.09;;;-0.08;100.00
9460;BME280;4768;42.664;23.240;2023-03-29T06:34:16;161237.31;;;-0.10;100.00
9460;BME280;4768;42.664;23.240;2023-03-29T06:36:42;166880.56;;;-0.10;100.00
9460;BME280;4768;42.664;23.240;2023-03-29T06:39:10;166896.44;;;-0.04;100.00
9460;BME280;4768;42.664;23.240;2023-03-29T06:41:37;166897.72;;;-0.03;100.00
9460;BME280;4768;42.664;23.240;2023-03-29T06:44:04;166907.00;;;0.00;100.00
9460;BME280;4768;42.664;23.240;2023-03-29T06:46:32;166899.03;;;-0.03;100.00
9460;BME280;4768;42.664;23.240;2023-03-29T06:48:59;166888.50;;;-0.07;100.00
9460;BME280;4768;42.664;23.240;2023-03-29T06:51:26;166854.09;;;-0.20;100.00
9460;BME280;4768;42.664;23.240;2023-03-29T06:53:53;166868.66;;;-0.14;100.00
9460;BME280;4768;42.664;23.240;2023-03-29T06:56:20;166897.72;;;-0.03;100.00
9460;BME280;4768;42.664;23.240;2023-03-29T06:58:48;166879.19;;;-0.10;100.00
9460;BME280;4768;42.664;23.240;2023-03-29T07:01:16;166918.91;;;0.04;100.00
9460;BME280;4768;42.664;23.240;2023-03-29T07:03:44;166899.03;;;-0.03;100.00
9460;BME280;4768;42.664;23.240;2023-03-29T07:06:11;166938.75;;;0.12;100.00
9460;BME280;4768;42.664;23.240;2023-03-29T07:08:40;166969.13;;;0.23;100.00
9460;BME280;4768;42.664;23.240;2023-03-29T07:11:09;167002.22;;;0.36;100.00
9460;BME280;4768;42.664;23.240;2023-03-29T07:13:37;167015.44;;;0.41;100.00
9460;BME280;4768;42.664;23.240;2023-03-29T07:16:05;167056.44;;;0.56;100.00
9460;BME280;4768;42.664;23.240;2023-03-29T07:18:32;167008.81;;;0.38;100.00
9460;BME280;4768;42.664;23.240;2023-03-29T07:21:01;166991.63;;;0.32;100.00
9460;BME280;4768;42.664;23.240;2023-03-29T07:23:28;167019.41;;;0.42;100.00
9460;BME280;4768;42.664;23.240;2023-03-29T07:25:55;167035.28;;;0.48;100.00
9460;BME280;4768;42.664;23.240;2023-03-29T07:28:22;167108.06;;;0.75;100.00
9460;BME280;4768;42.664;23.240;2023-03-29T07:30:49;167061.75;;;0.58;100.00
9460;BME280;4768;42.664;23.240;2023-03-29T07:33:16;167035.28;;;0.48;100.00
9460;BME280;4768;42.664;23.240;2023-03-29T07:35:45;167072.31;;;0.62;100.00
9460;BME280;4768;42.664;23.240;2023-03-29T07:38:13;167114.66;;;0.78;100.00
9460;BME280;4768;42.664;23.240;2023-03-29T07:40:40;167172.88;;;0.99;100.00
9460;BME280;4768;42.664;23.240;2023-03-29T07:43:07;167395.28;;;1.83;100.00
9460;BME280;4768;42.664;23.240;2023-03-29T07:45:35;167323.78;;;1.56;100.00
9460;BME280;4768;42.664;23.240;2023-03-29T07:48:05;167453.56;;;2.04;100.00
9460;BME280;4768;42.664;23.240;2023-03-29T07:50:32;167371.44;;;1.74;100.00
9460;BME280;4768;42.664;23.240;2023-03-29T07:52:59;167293.38;;;1.44;100.00
9460;BME280;4768;42.664;23.240;2023-03-29T07:55:28;167351.56;;;1.66;100.00
9460;BME280;4768;42.664;23.240;2023-03-29T07:57:55;167421.78;;;1.92;100.00
9460;BME280;4768;42.664;23.240;2023-03-29T08:00:22;167468.16;;;2.10;100.00
9460;BME280;4768;42.664;23.240;2023-03-29T08:02:50;167698.66;;;2.96;100.00
9460;BME280;4768;42.664;23.240;2023-03-29T08:05:19;167863.06;;;3.57;100.00
9460;BME280;4768;42.664;23.240;2023-03-29T08:07:46;167672.19;;;2.86;100.00
9460;BME280;4768;42.664;23.240;2023-03-29T08:10:15;167678.78;;;2.88;100.00
9460;BME280;4768;42.664;23.240;2023-03-29T08:12:44;167518.50;;;2.29;100.00
9460;BME280;4768;42.664;23.240;2023-03-29T08:15:12;167641.69;;;2.75;100.00
9460;BME280;4768;42.664;23.240;2023-03-29T08:17:40;167665.56;;;2.84;100.00
9460;BME280;4768;42.664;23.240;2023-03-29T08:20:08;167774.25;;;3.24;100.00
9460;BME280;4768;42.664;23.240;2023-03-29T08:22:36;167635.06;;;2.72;100.00
9460;BME280;4768;42.664;23.240;2023-03-29T08:25:04;167914.78;;;3.77;100.00
9460;BME280;4768;42.664;23.240;2023-03-29T08:27:31;167894.88;;;3.69;100.00
9460;BME280;4768;42.664;23.240;2023-03-29T08:29:59;168129.72;;;4.57;100.00
9460;BME280;4768;42.664;23.240;2023-03-29T08:32:26;168014.25;;;4.14;99.25
9460;BME280;4768;42.664;23.240;2023-03-29T08:34:53;168001.00;;;4.09;100.00
9460;BME280;4768;42.664;23.240;2023-03-29T08:37:20;168131.03;;;4.57;100.00
9460;BME280;4768;42.664;23.240;2023-03-29T08:39:48;168051.44;;;4.28;94.92
9460;BME280;4768;42.664;23.240;2023-03-29T08:42:29;168131.03;;;4.57;100.00
9460;BME280;4768;42.664;23.240;2023-03-29T08:45:06;168001.00;;;4.09;91.86
9460;BME280;4768;42.664;23.240;2023-03-29T08:47:38;167871.03;;;3.60;87.81
9460;BME280;4768;42.664;23.240;2023-03-29T08:50:08;168115.09;;;4.51;93.79
9460;BME280;4768;42.664;23.240;2023-03-29T08:52:37;167945.31;;;3.88;90.49
9460;BME280;4768;42.664;23.240;2023-03-29T08:55:09;167942.63;;;3.87;92.28
9460;BME280;4768;42.664;23.240;2023-03-29T08:57:42;167873.69;;;3.61;92.29
9460;BME280;4768;42.664;23.240;2023-03-29T09:00:18;167944.00;;;3.87;97.68
9460;BME280;4768;42.664;23.240;2023-03-29T09:02:48;167831.25;;;3.45;92.83
9460;BME280;4768;42.664;23.240;2023-03-29T09:05:21;167848.47;;;3.52;94.75
9460;BME280;4768;42.664;23.240;2023-03-29T09:07:50;167722.53;;;3.05;95.65
9460;BME280;4768;42.664;23.240;2023-03-29T09:10:20;167912.13;;;3.76;100.00
9460;BME280;4768;42.664;23.240;2023-03-29T09:13:02;167819.31;;;3.41;98.61
9460;BME280;4768;42.664;23.240;2023-03-29T09:15:40;167873.69;;;3.61;99.34
9460;BME280;4768;42.664;23.240;2023-03-29T09:18:14;167969.19;;;3.97;97.54
9460;BME280;4768;42.664;23.240;2023-03-29T09:20:49;167995.72;;;4.07;95.37
9460;BME280;4768;42.664;23.240;2023-03-29T09:23:35;167912.13;;;3.76;88.24
9460;BME280;4768;42.664;23.240;2023-03-29T09:26:11;167999.69;;;4.08;89.86
9460;BME280;4768;42.664;23.240;2023-03-29T09:28:44;168052.72;;;4.28;88.33
9460;BME280;4768;42.664;23.240;2023-03-29T09:31:17;167990.38;;;4.05;84.71
9460;BME280;4768;42.664;23.240;2023-03-29T09:33:49;168142.97;;;4.62;95.22
9460;BME280;4768;42.664;23.240;2023-03-29T09:36:23;168100.50;;;4.46;90.62
9460;BME280;4768;42.664;23.240;2023-03-29T09:38:51;168121.75;;;4.54;90.12
9460;BME280;4768;42.664;23.240;2023-03-29T09:41:21;168080.59;;;4.38;88.21
9460;BME280;4768;42.664;23.240;2023-03-29T09:43:51;168113.81;;;4.51;87.34
9460;BME280;4768;42.664;23.240;2023-03-29T09:46:25;168084.56;;;4.40;83.60
9460;BME280;4768;42.664;23.240;2023-03-29T09:48:55;167981.09;;;4.01;69.07
9460;BME280;4768;42.664;23.240;2023-03-29T09:51:23;168192.06;;;4.80;69.21
9460;BME280;4768;42.664;23.240;2023-03-29T09:53:54;168275.72;;;5.11;65.16
9460;BME280;4768;42.664;23.240;2023-03-29T09:56:21;168218.59;;;4.90;61.50
9460;BME280;4768;42.664;23.240;2023-03-29T09:58:48;168253.13;;;5.03;63.18
9460;BME280;4768;42.664;23.240;2023-03-29T10:01:15;168478.91;;;5.87;68.83
9460;BME280;4768;42.664;23.240;2023-03-29T10:03:49;168392.53;;;5.55;64.21
9460;BME280;4768;42.664;23.240;2023-03-29T10:06:19;168395.19;;;5.56;65.76
9460;BME280;4768;42.664;23.240;2023-03-29T10:08:51;168188.06;;;4.78;61.58
9460;BME280;4768;42.664;23.240;2023-03-29T10:11:23;168326.13;;;5.30;64.97
9460;BME280;4768;42.664;23.240;2023-03-29T10:13:54;168319.53;;;5.28;62.31
9460;BME280;4768;42.664;23.240;2023-03-29T10:16:29;168472.25;;;5.84;64.11
9460;BME280;4768;42.664;23.240;2023-03-29T10:18:57;168372.63;;;5.47;60.29
9460;BME280;4768;42.664;23.240;2023-03-29T10:21:28;168364.66;;;5.44;61.34
9460;BME280;4768;42.664;23.240;2023-03-29T10:23:58;168352.69;;;5.40;60.59
9460;BME280;4768;42.664;23.240;2023-03-29T10:26:28;168273.06;;;5.10;56.56
9460;BME280;4768;42.664;23.240;2023-03-29T10:28:57;168340.75;;;5.35;60.06
9460;BME280;4768;42.664;23.240;2023-03-29T10:31:28;168266.41;;;5.08;58.77
9460;BME280;4768;42.664;23.240;2023-03-29T10:34:01;168267.75;;;5.08;57.44
9460;BME280;4768;42.664;23.240;2023-03-29T10:36:30;168393.84;;;5.55;60.17
9460;BME280;4768;42.664;23.240;2023-03-29T10:38:58;168334.09;;;5.33;57.26
9460;BME280;4768;42.664;23.240;2023-03-29T10:41:26;168423.09;;;5.66;55.94
9460;BME280;4768;42.664;23.240;2023-03-29T10:43:54;168486.88;;;5.90;60.38
9460;BME280;4768;42.664;23.240;2023-03-29T10:46:22;168559.91;;;6.17;58.16
9460;BME280;4768;42.664;23.240;2023-03-29T10:48:55;168555.94;;;6.16;57.37
9460;BME280;4768;42.664;23.240;2023-03-29T10:51:27;168637.00;;;6.46;59.96
9460;BME280;4768;42.664;23.240;2023-03-29T10:53:56;168695.50;;;6.68;64.29
9460;BME280;4768;42.664;23.240;2023-03-29T10:56:33;168534.69;;;6.08;56.37
9460;BME280;4768;42.664;23.240;2023-03-29T10:59:13;168597.16;;;6.31;59.14
9460;BME280;4768;42.664;23.240;2023-03-29T11:01:49;168540.00;;;6.10;54.45
9460;BME280;4768;42.664;23.240;2023-03-29T11:04:27;168589.19;;;6.28;55.69
9460;BME280;4768;42.664;23.240;2023-03-29T11:07:13;168540.00;;;6.10;53.55
9460;BME280;4768;42.664;23.240;2023-03-29T11:09:48;168722.03;;;6.77;54.58
9460;BME280;4768;42.664;23.240;2023-03-29T11:12:25;168633.03;;;6.44;52.84
9460;BME280;4768;42.664;23.240;2023-03-29T11:15:01;168546.66;;;6.12;54.35
9460;BME280;4768;42.664;23.240;2023-03-29T11:17:41;168590.50;;;6.28;51.18
9460;BME280;4768;42.664;23.240;2023-03-29T11:20:27;168488.19;;;5.90;50.52
9460;BME280;4768;42.664;23.240;2023-03-29T11:23:06;168525.41;;;6.04;53.00
9460;BME280;4768;42.664;23.240;2023-03-29T11:25:46;168710.06;;;6.73;55.32
9460;BME280;4768;42.664;23.240;2023-03-29T11:28:19;168678.19;;;6.61;53.19
9460;BME280;4768;42.664;23.240;2023-03-29T11:30:55;168566.59;;;6.20;51.34
9460;BME280;4768;42.664;23.240;2023-03-29T11:33:34;168655.63;;;6.53;49.42
9460;BME280;4768;42.664;23.240;2023-03-29T11:36:08;168723.41;;;6.78;49.87
9460;BME280;4768;42.664;23.240;2023-03-29T11:38:45;168704.78;;;6.71;48.80
9460;BME280;4768;42.664;23.240;2023-03-29T11:41:16;168654.28;;;6.52;49.46
9460;BME280;4768;42.664;23.240;2023-03-29T11:43:46;168724.72;;;6.78;47.85
9460;BME280;4768;42.664;23.240;2023-03-29T11:46:17;168741.97;;;6.85;47.46
9460;BME280;4768;42.664;23.240;2023-03-29T11:48:49;168801.84;;;7.07;49.65
9460;BME280;4768;42.664;23.240;2023-03-29T11:51:22;168641.00;;;6.47;46.50
9460;BME280;4768;42.664;23.240;2023-03-29T11:53:58;168749.94;;;6.88;49.99
9460;BME280;4768;42.664;23.240;2023-03-29T11:56:31;168882.91;;;7.37;50.92
9460;BME280;4768;42.664;23.240;2023-03-29T11:59:05;168765.91;;;6.94;52.11
9460;BME280;4768;42.664;23.240;2023-03-29T12:01:37;168667.59;;;6.57;52.20
9460;BME280;4768;42.664;23.240;2023-03-29T12:04:09;168756.63;;;6.90;54.84
9460;BME280;4768;42.664;23.240;2023-03-29T12:06:42;168789.88;;;7.03;50.99
9460;BME280;4768;42.664;23.240;2023-03-29T12:09:22;168696.81;;;6.68;51.62
9460;BME280;4768;42.664;23.240;2023-03-29T12:11:55;168678.19;;;6.61;49.92
9460;BME280;4768;42.664;23.240;2023-03-29T12:14:29;168551.94;;;6.14;50.31
9460;BME280;4768;42.664;23.240;2023-03-29T12:17:09;168811.13;;;7.11;53.02
9460;BME280;4768;42.664;23.240;2023-03-29T12:19:40;168809.81;;;7.10;51.00
9460;BME280;4768;42.664;23.240;2023-03-29T12:22:10;168719.41;;;6.76;50.93
9460;BME280;4768;42.664;23.240;2023-03-29T12:24:39;168856.31;;;7.27;52.26
9460;BME280;4768;42.664;23.240;2023-03-29T12:27:39;168978.66;;;7.73;53.70
9460;BME280;4768;42.664;23.240;2023-03-29T12:30:26;168940.06;;;7.59;50.02
9460;BME280;4768;42.664;23.240;2023-03-29T12:35:50;168957.38;;;7.65;48.93
9460;BME280;4768;42.664;23.240;2023-03-29T12:38:24;168821.78;;;7.15;45.96
9460;BME280;4768;42.664;23.240;2023-03-29T12:40:55;168769.88;;;6.95;46.12
9460;BME280;4768;42.664;23.240;2023-03-29T12:43:24;168827.06;;;7.17;47.77
9460;BME280;4768;42.664;23.240;2023-03-29T12:45:54;168872.25;;;7.33;49.77
9460;BME280;4768;42.664;23.240;2023-03-29T12:48:24;168793.88;;;7.04;49.89
9460;BME280;4768;42.664;23.240;2023-03-29T12:50:54;168894.88;;;7.42;51.55
9460;BME280;4768;42.664;23.240;2023-03-29T12:53:26;168723.41;;;6.78;47.80
9460;BME280;4768;42.664;23.240;2023-03-29T12:56:09;168753.94;;;6.89;48.33
9460;BME280;4768;42.664;23.240;2023-03-29T12:59:04;168759.28;;;6.91;46.63
9460;BME280;4768;42.664;23.240;2023-03-29T13:01:33;168735.38;;;6.82;46.35
9460;BME280;4768;42.664;23.240;2023-03-29T13:04:13;168829.75;;;7.18;48.07
9460;BME280;4768;42.664;23.240;2023-03-29T13:06:55;168848.34;;;7.24;47.82
9460;BME280;4768;42.664;23.240;2023-03-29T13:09:28;168793.88;;;7.04;47.56
9460;BME280;4768;42.664;23.240;2023-03-29T13:12:05;168829.75;;;7.18;46.28
9460;BME280;4768;42.664;23.240;2023-03-29T13:14:34;168787.19;;;7.02;44.67
9460;BME280;4768;42.664;23.240;2023-03-29T13:17:03;168873.63;;;7.34;44.29
9460;BME280;4768;42.664;23.240;2023-03-29T13:19:34;168839.03;;;7.21;45.37
9460;BME280;4768;42.664;23.240;2023-03-29T13:22:12;168833.75;;;7.19;45.30